createdAt,value
2023-06-18T00:01:56.614Z,5.80
2023-06-18T00:04:34.570Z,6.10
2023-06-18T00:07:12.464Z,5.70
2023-06-18T00:09:49.699Z,5.90
2023-06-18T00:12:26.209Z,6.40
2023-06-18T00:15:03.610Z,5.80
2023-06-18T00:17:39.727Z,6.20
2023-06-18T00:20:21.760Z,6.10
2023-06-18T00:22:59.385Z,6.00
2023-06-18T00:25:38.042Z,6.00
2023-06-18T00:28:15.641Z,6.20
2023-06-18T00:30:51.801Z,6.40
2023-06-18T00:33:28.587Z,6.00
2023-06-18T00:36:06.331Z,5.90
2023-06-18T00:38:48.622Z,6.60
2023-06-18T00:41:26.631Z,6.00
2023-06-18T00:44:03.794Z,6.40
2023-06-18T00:46:41.905Z,6.30
2023-06-18T00:49:19.931Z,6.20
2023-06-18T00:51:56.493Z,5.60
2023-06-18T00:54:36.469Z,5.60
2023-06-18T00:59:59.082Z,6.00
2023-06-18T01:02:35.843Z,6.20
2023-06-18T01:05:18.842Z,5.90
2023-06-18T01:07:56.533Z,6.30
2023-06-18T01:10:33.741Z,6.40
2023-06-18T01:13:10.629Z,5.90
2023-06-18T01:15:47.521Z,6.10
2023-06-18T01:18:24.654Z,6.30
2023-06-18T01:21:00.790Z,5.80
2023-06-18T01:23:51.865Z,5.90
2023-06-18T01:26:28.811Z,5.80
2023-06-18T01:29:05.696Z,5.70
2023-06-18T01:31:46.101Z,6.40
2023-06-18T01:34:21.771Z,5.80
2023-06-18T01:37:11.029Z,6.40
2023-06-18T01:40:02.348Z,6.10
2023-06-18T01:42:45.882Z,6.10
2023-06-18T01:45:34.922Z,5.90
2023-06-18T01:48:16.370Z,5.20
2023-06-18T01:50:57.401Z,5.60
2023-06-18T01:53:36.026Z,5.90
2023-06-18T01:56:14.960Z,5.60
2023-06-18T01:58:52.752Z,5.70
2023-06-18T02:01:31.469Z,5.90
2023-06-18T02:04:09.252Z,5.70
2023-06-18T02:06:46.623Z,5.00
2023-06-18T02:09:23.346Z,5.80
2023-06-18T02:11:59.981Z,5.90
2023-06-18T02:14:36.764Z,5.50
2023-06-18T02:17:13.573Z,5.70
2023-06-18T02:19:49.815Z,5.80
2023-06-18T02:22:25.874Z,6.30
2023-06-18T02:25:02.798Z,6.40
2023-06-18T02:27:39.641Z,5.60
2023-06-18T02:30:20.980Z,6.00
2023-06-18T02:32:57.308Z,6.00
2023-06-18T02:35:32.946Z,5.70
2023-06-18T02:38:09.099Z,5.50
2023-06-18T02:40:45.316Z,5.30
2023-06-18T02:43:22.165Z,5.60
2023-06-18T02:45:58.182Z,5.30
2023-06-18T02:48:33.537Z,5.80
2023-06-18T02:51:09.809Z,6.20
2023-06-18T02:53:46.194Z,6.00
2023-06-18T02:56:22.591Z,5.50
2023-06-18T02:58:59.326Z,5.70
2023-06-18T03:01:37.535Z,5.40
2023-06-18T03:04:16.638Z,6.10
2023-06-18T03:06:53.174Z,5.70
2023-06-18T03:09:30.988Z,6.60
2023-06-18T03:12:25.871Z,6.30
2023-06-18T03:15:01.857Z,6.40
2023-06-18T03:17:38.208Z,5.70
2023-06-18T03:20:21.822Z,6.90
2023-06-18T03:23:01.706Z,6.00
2023-06-18T03:25:38.685Z,5.40
2023-06-18T03:28:18.265Z,6.10
2023-06-18T03:30:55.215Z,6.20
2023-06-18T03:33:32.424Z,6.00
2023-06-18T03:36:09.899Z,6.10
2023-06-18T03:38:48.318Z,5.70
2023-06-18T03:41:25.917Z,6.50
2023-06-18T03:44:02.461Z,5.60
2023-06-18T03:46:40.127Z,6.50
2023-06-18T03:49:15.624Z,6.40
2023-06-18T03:51:53.246Z,6.00
2023-06-18T03:54:28.979Z,6.50
2023-06-18T03:57:06.063Z,6.10
2023-06-18T03:59:44.468Z,7.00
2023-06-18T04:02:24.755Z,5.90
2023-06-18T04:05:01.968Z,5.50
2023-06-18T04:07:37.780Z,6.10
2023-06-18T04:10:16.928Z,6.10
2023-06-18T04:12:53.727Z,7.20
2023-06-18T04:15:30.253Z,6.50
2023-06-18T04:18:08.541Z,5.60
2023-06-18T04:20:45.664Z,6.50
2023-06-18T04:23:24.423Z,6.50
2023-06-18T04:26:01.433Z,6.00
2023-06-18T04:28:38.345Z,6.90
2023-06-18T04:31:15.660Z,6.60
2023-06-18T04:33:52.742Z,6.10
2023-06-18T04:36:29.490Z,6.60
2023-06-18T04:39:09.640Z,6.50
2023-06-18T04:41:45.966Z,6.60
2023-06-18T04:44:23.708Z,6.00
2023-06-18T04:46:59.198Z,6.10
2023-06-18T04:49:35.825Z,6.80
2023-06-18T04:52:15.893Z,6.60
2023-06-18T04:54:54.211Z,6.40
2023-06-18T04:57:34.071Z,6.50
2023-06-18T05:00:17.118Z,6.80
2023-06-18T05:02:55.994Z,6.30
2023-06-18T05:05:32.522Z,7.00
2023-06-18T05:08:09.611Z,6.10
2023-06-18T05:10:47.455Z,6.00
2023-06-18T05:13:23.920Z,6.90
2023-06-18T05:16:00.557Z,5.80
2023-06-18T05:18:40.105Z,6.80
2023-06-18T05:21:18.399Z,6.20
2023-06-18T05:23:55.535Z,6.10
2023-06-18T05:26:33.760Z,6.20
2023-06-18T05:29:11.000Z,6.10
2023-06-18T05:31:49.272Z,6.60
2023-06-18T05:34:32.053Z,6.40
2023-06-18T05:37:08.796Z,6.00
2023-06-18T05:39:45.955Z,5.70
2023-06-18T05:42:22.338Z,6.00
2023-06-18T05:44:59.030Z,5.90
2023-06-18T05:47:36.064Z,6.70
2023-06-18T05:50:17.717Z,5.80
2023-06-18T05:52:53.926Z,6.00
2023-06-18T05:55:31.442Z,5.60
2023-06-18T05:58:08.766Z,6.10
2023-06-18T06:00:46.505Z,5.70
2023-06-18T06:03:23.095Z,6.00
2023-06-18T06:05:58.867Z,6.30
2023-06-18T06:08:36.072Z,5.70
2023-06-18T06:11:15.182Z,6.00
2023-06-18T06:13:52.094Z,6.40
2023-06-18T06:16:28.898Z,6.50
2023-06-18T06:19:05.549Z,6.00
2023-06-18T06:21:41.859Z,5.80
2023-06-18T06:24:19.039Z,6.20
2023-06-18T06:26:55.571Z,6.30
2023-06-18T06:29:32.658Z,6.20
2023-06-18T06:32:10.870Z,6.20
2023-06-18T06:34:48.217Z,6.10
2023-06-18T06:37:25.594Z,6.90
2023-06-18T06:40:01.994Z,6.80
2023-06-18T06:42:39.803Z,6.60
2023-06-18T06:45:45.522Z,6.00
2023-06-18T06:48:24.957Z,5.80
2023-06-18T06:51:12.216Z,5.60
2023-06-18T06:53:56.458Z,5.70
2023-06-18T06:56:33.445Z,5.70
2023-06-18T06:59:09.299Z,5.80
2023-06-18T07:01:45.210Z,5.60
2023-06-18T07:04:22.424Z,5.80
2023-06-18T07:06:59.365Z,6.50
2023-06-18T07:09:35.396Z,6.30
2023-06-18T07:12:15.189Z,6.00
2023-06-18T07:14:52.253Z,6.30
2023-06-18T07:17:28.830Z,6.70
2023-06-18T07:20:05.561Z,6.00
2023-06-18T07:22:41.518Z,6.40
2023-06-18T07:25:19.205Z,6.90
2023-06-18T07:27:55.681Z,6.70
2023-06-18T07:30:31.823Z,6.10
2023-06-18T07:33:08.621Z,6.30
2023-06-18T07:35:44.734Z,6.80
2023-06-18T07:38:23.870Z,6.00
2023-06-18T07:41:01.488Z,6.10
2023-06-18T07:43:37.958Z,7.20
2023-06-18T07:46:14.257Z,6.70
2023-06-18T07:48:50.144Z,7.30
2023-06-18T07:51:28.591Z,6.40
2023-06-18T07:54:05.241Z,7.00
2023-06-18T07:56:41.855Z,8.30
2023-06-18T07:59:18.333Z,7.20
2023-06-18T08:01:55.496Z,8.10
2023-06-18T08:04:32.520Z,7.20
2023-06-18T08:07:10.321Z,7.70
2023-06-18T08:09:47.225Z,8.30
2023-06-18T08:12:23.884Z,7.00
2023-06-18T08:15:00.538Z,7.60
2023-06-18T08:17:36.849Z,7.30
2023-06-18T08:20:18.017Z,7.90
2023-06-18T08:22:54.214Z,7.80
2023-06-18T08:25:30.847Z,7.60
2023-06-18T08:28:08.232Z,7.60
2023-06-18T08:30:45.408Z,7.00
2023-06-18T08:33:22.627Z,7.60
2023-06-18T08:35:58.505Z,8.30
2023-06-18T08:38:36.227Z,7.10
2023-06-18T08:41:13.467Z,7.60
2023-06-18T08:43:49.696Z,7.50
2023-06-18T08:46:28.019Z,7.90
2023-06-18T08:49:06.522Z,8.20
2023-06-18T08:51:48.975Z,7.90
2023-06-18T08:54:34.992Z,7.10
2023-06-18T08:57:20.506Z,6.00
2023-06-18T08:59:57.801Z,6.50
2023-06-18T09:02:35.555Z,7.30
2023-06-18T09:05:14.844Z,7.10
2023-06-18T09:07:52.024Z,7.00
2023-06-18T09:10:29.251Z,6.30
2023-06-18T09:13:07.435Z,5.70
2023-06-18T09:15:44.002Z,6.10
2023-06-18T09:18:21.545Z,5.10
2023-06-18T09:21:00.602Z,5.60
2023-06-18T09:23:37.395Z,5.60
2023-06-18T09:26:15.685Z,5.10
2023-06-18T09:28:57.412Z,5.50
2023-06-18T09:31:34.436Z,5.40
2023-06-18T09:34:22.216Z,5.40
2023-06-18T09:36:58.536Z,5.70
2023-06-18T09:39:35.270Z,5.50
2023-06-18T09:42:17.268Z,5.80
2023-06-18T09:44:54.374Z,6.10
2023-06-18T09:47:30.454Z,5.40
2023-06-18T09:50:09.047Z,5.20
2023-06-18T09:52:52.817Z,5.30
2023-06-18T09:55:37.056Z,5.70
2023-06-18T09:58:15.396Z,5.40
2023-06-18T10:01:10.224Z,5.50
2023-06-18T10:03:48.827Z,5.00
2023-06-18T10:06:26.194Z,6.90
2023-06-18T10:09:07.945Z,5.60
2023-06-18T10:11:47.012Z,5.80
2023-06-18T10:14:29.018Z,5.30
2023-06-18T10:17:12.370Z,5.20
2023-06-18T10:19:56.867Z,5.50
2023-06-18T10:22:41.638Z,5.20
2023-06-18T10:25:18.910Z,5.30
2023-06-18T10:27:57.235Z,5.10
2023-06-18T10:30:34.007Z,5.20
2023-06-18T10:33:10.913Z,5.70
2023-06-18T10:35:48.094Z,5.50
2023-06-18T10:38:25.914Z,4.90
2023-06-18T10:41:16.760Z,5.10
2023-06-18T10:43:57.560Z,5.30
2023-06-18T10:46:35.539Z,6.10
2023-06-18T10:49:25.097Z,5.40
2023-06-18T10:52:30.908Z,5.10
2023-06-18T10:55:13.773Z,5.50
2023-06-18T10:57:54.036Z,5.00
2023-06-18T11:00:37.094Z,5.20
2023-06-18T11:03:18.044Z,5.40
2023-06-18T11:05:55.851Z,5.60
2023-06-18T11:08:37.040Z,5.70
2023-06-18T11:11:15.547Z,6.00
2023-06-18T11:13:56.988Z,5.50
2023-06-18T11:16:35.090Z,5.20
2023-06-18T11:19:13.477Z,5.10
2023-06-18T11:21:55.496Z,5.70
2023-06-18T11:24:32.980Z,5.80
2023-06-18T11:27:11.671Z,5.80
2023-06-18T11:29:47.886Z,5.70
2023-06-18T11:32:25.797Z,5.90
2023-06-18T11:35:01.540Z,5.50
2023-06-18T11:37:38.315Z,5.40
2023-06-18T11:40:16.862Z,5.40
2023-06-18T11:42:58.557Z,5.20
2023-06-18T11:45:35.463Z,5.20
2023-06-18T11:48:12.938Z,6.00
2023-06-18T11:50:52.253Z,5.50
2023-06-18T11:53:29.382Z,5.50
2023-06-18T11:56:05.993Z,5.70
2023-06-18T11:58:42.159Z,5.60
2023-06-18T12:01:21.893Z,5.40
2023-06-18T12:04:07.705Z,6.50
2023-06-18T12:06:45.967Z,5.60
2023-06-18T12:09:22.819Z,5.50
2023-06-18T12:12:22.272Z,6.10
2023-06-18T12:15:08.097Z,5.50
2023-06-18T12:17:55.912Z,5.60
2023-06-18T12:20:34.872Z,6.10
2023-06-18T12:23:11.169Z,5.80
2023-06-18T12:25:47.699Z,6.10
2023-06-18T12:28:30.587Z,6.80
2023-06-18T12:31:11.616Z,5.80
2023-06-18T12:33:48.523Z,6.50
2023-06-18T12:36:31.449Z,6.00
2023-06-18T12:39:16.135Z,5.80
2023-06-18T12:41:53.070Z,5.40
2023-06-18T12:44:30.710Z,5.70
2023-06-18T12:47:07.222Z,6.10
2023-06-18T12:49:48.025Z,5.60
2023-06-18T12:52:28.212Z,5.90
2023-06-18T12:55:12.634Z,5.70
2023-06-18T12:57:52.542Z,6.90
2023-06-18T13:00:30.303Z,5.80
2023-06-18T13:03:06.858Z,5.50
2023-06-18T13:05:43.378Z,6.30
2023-06-18T13:08:24.904Z,5.40
2023-06-18T13:11:02.923Z,5.30
2023-06-18T13:13:39.452Z,5.50
2023-06-18T13:16:16.359Z,5.40
2023-06-18T13:18:53.530Z,5.50
2023-06-18T13:21:30.555Z,5.40
2023-06-18T13:24:08.056Z,5.10
2023-06-18T13:26:44.293Z,6.10
2023-06-18T13:29:21.282Z,5.50
2023-06-18T13:31:57.872Z,5.60
2023-06-18T13:34:34.967Z,5.20
2023-06-18T13:37:12.955Z,5.80
2023-06-18T13:39:49.744Z,6.00
2023-06-18T13:42:27.679Z,6.10
2023-06-18T13:45:03.962Z,5.70
2023-06-18T13:47:40.108Z,5.40
2023-06-18T13:50:19.066Z,5.00
2023-06-18T13:52:55.650Z,5.70
2023-06-18T13:55:32.502Z,5.50
2023-06-18T13:58:10.115Z,5.10
2023-06-18T14:00:48.026Z,5.00
2023-06-18T14:03:23.569Z,5.50
2023-06-18T14:05:59.061Z,5.60
2023-06-18T14:08:36.006Z,6.00
2023-06-18T14:11:13.966Z,5.60
2023-06-18T14:13:50.792Z,5.20
2023-06-18T14:16:27.686Z,5.40
2023-06-18T14:19:05.219Z,5.00
2023-06-18T14:21:42.931Z,5.10
2023-06-18T14:24:19.827Z,5.50
2023-06-18T14:26:55.923Z,5.10
2023-06-18T14:29:32.628Z,4.90
2023-06-18T14:32:10.783Z,5.40
2023-06-18T14:34:47.511Z,5.10
2023-06-18T14:37:24.945Z,5.30
2023-06-18T14:40:01.276Z,5.80
2023-06-18T14:42:36.928Z,5.40
2023-06-18T14:45:18.209Z,5.10
2023-06-18T14:47:54.319Z,6.10
2023-06-18T14:50:31.456Z,5.30
2023-06-18T14:53:12.859Z,5.20
2023-06-18T14:55:49.441Z,5.10
2023-06-18T14:58:25.634Z,5.20
2023-06-18T15:01:02.228Z,5.30
2023-06-18T15:03:38.906Z,5.60
2023-06-18T15:06:15.677Z,5.20
2023-06-18T15:08:51.918Z,5.30
2023-06-18T15:11:29.655Z,4.90
2023-06-18T15:14:06.568Z,5.70
2023-06-18T15:16:42.568Z,5.10
2023-06-18T15:19:20.811Z,4.70
2023-06-18T15:21:57.422Z,5.20
2023-06-18T15:24:34.363Z,5.20
2023-06-18T15:27:12.278Z,5.20
2023-06-18T15:29:48.782Z,5.60
2023-06-18T15:32:26.586Z,5.20
2023-06-18T15:35:03.210Z,4.90
2023-06-18T15:37:40.316Z,4.80
2023-06-18T15:40:20.087Z,4.70
2023-06-18T15:42:56.876Z,4.40
2023-06-18T15:45:32.889Z,5.20
2023-06-18T15:48:09.501Z,5.00
2023-06-18T15:50:45.628Z,5.20
2023-06-18T15:53:23.389Z,4.70
2023-06-18T15:56:01.114Z,4.90
2023-06-18T15:58:36.831Z,4.70
2023-06-18T16:01:15.148Z,5.00
2023-06-18T16:03:52.053Z,4.10
2023-06-18T16:06:28.290Z,4.40
2023-06-18T16:09:04.927Z,4.80
2023-06-18T16:11:41.985Z,4.10
2023-06-18T16:14:18.046Z,4.70
2023-06-18T16:16:54.550Z,5.10
2023-06-18T16:19:31.072Z,5.00
2023-06-18T16:22:07.699Z,4.80
2023-06-18T16:24:44.273Z,4.70
2023-06-18T16:27:21.205Z,5.10
2023-06-18T16:29:58.013Z,5.10
2023-06-18T16:32:34.723Z,4.70
2023-06-18T16:35:14.149Z,5.00
2023-06-18T16:37:51.802Z,4.60
2023-06-18T16:40:31.209Z,4.70
2023-06-18T16:43:07.918Z,4.80
2023-06-18T16:45:44.877Z,4.80
2023-06-18T16:48:21.244Z,4.80
2023-06-18T16:50:57.981Z,5.30
2023-06-18T16:53:34.624Z,5.20
2023-06-18T16:56:11.148Z,5.00
2023-06-18T16:58:48.436Z,4.60
2023-06-18T17:01:24.949Z,4.90
2023-06-18T17:04:03.505Z,4.70
2023-06-18T17:06:39.933Z,4.90
2023-06-18T17:09:16.190Z,4.70
2023-06-18T17:11:53.317Z,4.80
2023-06-18T17:14:29.948Z,5.10
2023-06-18T17:17:07.413Z,5.00
2023-06-18T17:19:44.028Z,4.80
2023-06-18T17:22:20.929Z,5.20
2023-06-18T17:24:56.926Z,5.40
2023-06-18T17:27:32.944Z,5.10
2023-06-18T17:30:13.117Z,4.60
2023-06-18T17:32:49.627Z,5.10
2023-06-18T17:35:26.740Z,5.50
2023-06-18T17:38:05.133Z,5.10
2023-06-18T17:40:43.860Z,4.80
2023-06-18T17:43:22.047Z,5.20
2023-06-18T17:46:12.615Z,5.70
2023-06-18T17:48:50.016Z,5.30
2023-06-18T17:51:27.595Z,4.70
2023-06-18T17:54:04.353Z,4.80
2023-06-18T17:56:40.304Z,4.90
2023-06-18T17:59:16.828Z,5.20
2023-06-18T18:01:54.101Z,4.90
2023-06-18T18:04:30.305Z,5.30
2023-06-18T18:07:07.714Z,5.30
2023-06-18T18:09:45.016Z,4.60
2023-06-18T18:12:20.788Z,5.30
2023-06-18T18:14:57.762Z,4.80
2023-06-18T18:17:34.214Z,5.40
2023-06-18T18:20:14.775Z,5.40
2023-06-18T18:22:51.553Z,5.70
2023-06-18T18:25:28.318Z,5.40
2023-06-18T18:28:04.667Z,5.50
2023-06-18T18:30:41.238Z,5.50
2023-06-18T18:33:18.379Z,5.70
2023-06-18T18:35:54.865Z,6.40
2023-06-18T18:38:30.489Z,6.20
2023-06-18T18:41:06.605Z,6.30
2023-06-18T18:43:43.243Z,6.70
2023-06-18T18:46:19.539Z,6.50
2023-06-18T18:48:56.429Z,5.90
2023-06-18T18:51:32.842Z,6.50
2023-06-18T18:54:09.550Z,6.10
2023-06-18T18:56:45.399Z,6.20
2023-06-18T18:59:23.176Z,5.90
2023-06-18T19:01:59.382Z,6.10
2023-06-18T19:04:36.279Z,5.80
2023-06-18T19:07:14.104Z,5.70
2023-06-18T19:09:53.965Z,5.70
2023-06-18T19:12:30.957Z,6.10
2023-06-18T19:15:07.389Z,5.80
2023-06-18T19:17:45.478Z,6.00
2023-06-18T19:20:24.399Z,6.00
2023-06-18T19:23:00.785Z,6.30
2023-06-18T19:25:37.157Z,5.90
2023-06-18T19:28:14.775Z,6.10
2023-06-18T19:30:52.146Z,5.90
2023-06-18T19:33:29.370Z,6.30
2023-06-18T19:36:05.980Z,5.80
2023-06-18T19:38:42.991Z,5.90
2023-06-18T19:41:19.524Z,5.50
2023-06-18T19:43:56.694Z,5.60
2023-06-18T19:46:33.187Z,5.90
2023-06-18T19:49:09.852Z,5.70
2023-06-18T19:51:46.554Z,6.10
2023-06-18T19:54:23.310Z,5.70
2023-06-18T19:57:00.779Z,5.90
2023-06-18T19:59:38.714Z,5.30
2023-06-18T20:02:15.611Z,6.00
2023-06-18T20:04:52.638Z,6.30
2023-06-18T20:07:30.870Z,6.20
2023-06-18T20:10:07.413Z,6.70
2023-06-18T20:12:45.472Z,6.50
2023-06-18T20:15:22.861Z,6.30
2023-06-18T20:17:59.225Z,6.80
2023-06-18T20:20:36.449Z,6.10
2023-06-18T20:23:12.843Z,5.90
2023-06-18T20:25:50.083Z,6.30
2023-06-18T20:28:26.514Z,6.00
2023-06-18T20:31:02.929Z,6.60
2023-06-18T20:33:41.320Z,5.90
2023-06-18T20:36:21.012Z,6.60
2023-06-18T20:38:59.909Z,6.20
2023-06-18T20:41:37.337Z,6.30
2023-06-18T20:44:14.921Z,6.30
2023-06-18T20:46:51.566Z,6.30
2023-06-18T20:49:28.284Z,6.50
2023-06-18T20:52:05.246Z,6.20
2023-06-18T20:54:42.367Z,6.20
2023-06-18T20:57:18.498Z,5.90
2023-06-18T20:59:55.448Z,6.10
2023-06-18T21:02:31.981Z,6.20
2023-06-18T21:05:10.808Z,6.40
2023-06-18T21:07:47.194Z,6.10
2023-06-18T21:10:24.324Z,6.10
2023-06-18T21:13:00.777Z,6.30
2023-06-18T21:15:38.069Z,6.30
2023-06-18T21:18:14.425Z,6.00
2023-06-18T21:20:50.995Z,6.00
2023-06-18T21:23:27.685Z,6.60
2023-06-18T21:26:04.880Z,6.30
2023-06-18T21:28:40.923Z,6.90
2023-06-18T21:31:17.437Z,6.50
2023-06-18T21:33:54.443Z,6.20
2023-06-18T21:36:32.968Z,6.50
2023-06-18T21:39:10.771Z,6.70
2023-06-18T21:41:47.332Z,6.50
2023-06-18T21:44:24.061Z,6.60
2023-06-18T21:47:13.184Z,6.40
2023-06-18T21:49:50.095Z,7.10
2023-06-18T21:52:27.781Z,6.60
2023-06-18T21:55:04.589Z,6.00
2023-06-18T21:57:41.655Z,6.70
2023-06-18T22:00:23.305Z,6.50
2023-06-18T22:03:00.020Z,6.80
2023-06-18T22:05:36.904Z,6.30
2023-06-18T22:08:24.511Z,6.40
2023-06-18T22:11:01.231Z,6.50
2023-06-18T22:13:37.803Z,6.70
2023-06-18T22:16:15.032Z,6.30
2023-06-18T22:18:51.916Z,6.10
2023-06-18T22:21:28.924Z,6.90
2023-06-18T22:24:04.638Z,7.10
2023-06-18T22:26:41.055Z,6.60
2023-06-18T22:29:17.869Z,7.00
2023-06-18T22:31:54.692Z,7.10
2023-06-18T22:34:41.336Z,7.00
2023-06-18T22:37:19.465Z,6.50
2023-06-18T22:39:56.030Z,6.90
2023-06-18T22:42:32.837Z,6.80
2023-06-18T22:45:12.497Z,6.50
2023-06-18T22:47:48.645Z,7.10
2023-06-18T22:50:25.651Z,6.80
2023-06-18T22:53:02.668Z,6.80
2023-06-18T22:55:39.336Z,6.90
2023-06-18T22:58:15.836Z,6.30
2023-06-18T23:00:53.421Z,7.90
2023-06-18T23:03:29.767Z,6.90
2023-06-18T23:06:06.062Z,6.60
2023-06-18T23:08:43.135Z,6.80
2023-06-18T23:11:20.800Z,7.50
2023-06-18T23:13:57.466Z,7.20
2023-06-18T23:16:34.993Z,7.10
2023-06-18T23:19:11.675Z,6.90
2023-06-18T23:21:48.536Z,6.70
2023-06-18T23:24:25.519Z,7.40
2023-06-18T23:27:02.176Z,7.20
2023-06-18T23:29:38.871Z,7.60
2023-06-18T23:32:16.800Z,7.10
2023-06-18T23:34:52.882Z,8.00
2023-06-18T23:37:29.333Z,7.70
2023-06-18T23:40:07.002Z,7.50
2023-06-18T23:42:43.725Z,7.60
2023-06-18T23:45:20.756Z,7.20
2023-06-18T23:47:56.578Z,7.50
2023-06-18T23:50:32.679Z,7.40
2023-06-18T23:53:13.059Z,7.10
2023-06-18T23:55:49.515Z,6.80
2023-06-18T23:58:26.566Z,7.20
